Etusivu
METAR-TAF:

METAR-TAF

Lentoasemat :

Rønne, Tanska

Leveyspiiri: 55-04N, Pituuspiiri: 014-45E, korkeus merenpinnasta: 16 m

Tämänhetkinen sää

Tämä raportti tehtiin 21 minuuttia sitten, kello 14.20 UTC
Tuuli 9 kn lounaasta
Lämpötila 14°C
Kosteus 67%
Ilmanpaine 1001 hPa
Näkyvyys 10 km tai enemmän

METAR: EKRN 061420Z AUTO 23009KT 9999 FEW047/// BKN054/// 14/08 Q1001

Aika: 16:41 (14:41 UTC)

Sääennuste

Tämä raportti tehtiin 3 tuntia ja 17 minuuttia sitten, kello 11.24 UTC
Ennuste voimassa 06. päivästä klo 12 UTC - 06. päivään klo 18 UTC
Tuuli 20 kn lounaasta
Näkyvyys 10 km tai enemmän
Hajanaisia pilviä 2000 ft:n korkeudessa
Ajoittain
06. päivästä klo 12 UTC - 06. päivään klo 15 UTC
Hajanaisia pilviä 2000 ft:n korkeudessa, Cumulonimbus.
Tulossa
06. päivästä klo 13 UTC - 06. päivään klo 16 UTC
Tuuli 8 kn lounaasta

TAF: EKRN 061124Z 0612/0618 23020KT 9999 SCT020 TEMPO 0612/0615 SCT020CB BECMG 0613/0616 22008KT

Säähavainnot ja -ennusteet yli 4000 lentoasemalta (METAR- ja TAF-raportit).

Käytössä olevat sääasemat on merkitty karttaan keltaisilla ja punaisilla pisteillä.

Aseta hiiri pisteen päälle nähdäksesi sääaseman nimen.

Klikkaa sitten nähdäksesi säähavainnot ja -ennusteet.

Kartan vaihtaminen: klikkaa mustalla rastilla varustettuja vihreitä pisteitä, niin voit zoomata sisään; viivalla varustettua vihreää pistettä, niin voit zoomata ulos tai vihreitä nuolia, niin pääset viereisille kartoille.


METAR-TAF: